Time;durP1;ratioP1;P1;durP2;ratioP2;P2;SDS_P1;SDS_P2;PMS_P1;PMS_P2;Temp;Humidity;BMP_temperature;BMP_pressure;BME280_temperature;BME280_humidity;BME280_pressure;Samples;Min_cycle;Max_cycle;Signal;HPM_P1;HPM_P2
2021/01/03 00:02:01;;;;;;;50.77;26.17;;;4.50;99.90;;;;;;4990661;28;21044;-48
2021/01/03 00:04:29;;;;;;;53.57;28.37;;;4.60;99.90;;;;;;4993777;28;20495;-48
2021/01/03 00:06:57;;;;;;;46.93;25.33;;;4.50;99.90;;;;;;4994081;28;20548;-48
2021/01/03 00:09:26;;;;;;;56.60;30.23;;;4.60;99.90;;;;;;4993232;28;20488;-49
2021/01/03 00:11:54;;;;;;;54.47;27.43;;;4.50;99.90;;;;;;4990068;28;26616;-48
2021/01/03 00:14:23;;;;;;;54.67;28.53;;;4.40;99.90;;;;;;4994108;28;20869;-48
2021/01/03 00:16:54;;;;;;;56.73;30.13;;;4.50;99.90;;;;;;4994174;28;20484;-48
2021/01/03 00:19:22;;;;;;;55.30;29.43;;;4.40;99.90;;;;;;4993883;28;20492;-48
2021/01/03 00:21:50;;;;;;;54.23;28.60;;;4.40;99.90;;;;;;4990805;28;20496;-48
2021/01/03 00:24:18;;;;;;;56.60;28.13;;;4.40;99.90;;;;;;5005434;28;20882;-48
2021/01/03 00:26:46;;;;;;;48.90;26.53;;;4.40;99.90;;;;;;5005832;28;21086;-48
2021/01/03 00:29:14;;;;;;;58.90;30.27;;;4.40;99.90;;;;;;5007469;28;20495;-48
2021/01/03 00:31:43;;;;;;;53.77;29.60;;;4.50;99.90;;;;;;5008042;28;20491;-48
2021/01/03 00:34:12;;;;;;;54.43;28.97;;;4.50;99.90;;;;;;4987321;28;20479;-49
2021/01/03 00:36:39;;;;;;;50.87;27.43;;;4.50;99.90;;;;;;4984436;28;20575;-48
2021/01/03 00:39:07;;;;;;;54.03;28.43;;;4.50;99.90;;;;;;4992371;28;20479;-48
2021/01/03 00:41:34;;;;;;;54.53;29.43;;;4.50;99.90;;;;;;5009725;28;20505;-48
2021/01/03 00:44:03;;;;;;;56.43;28.43;;;4.40;99.90;;;;;;5011881;28;20483;-48
2021/01/03 00:46:31;;;;;;;56.63;29.43;;;4.40;99.90;;;;;;5023308;28;20691;-48
2021/01/03 00:48:58;;;;;;;51.53;27.00;;;4.30;99.90;;;;;;5023562;28;20540;-48
2021/01/03 00:51:25;;;;;;;58.13;28.33;;;4.40;99.90;;;;;;5013885;28;20580;-48
2021/01/03 00:53:53;;;;;;;53.70;28.10;;;4.40;99.90;;;;;;5007004;28;20853;-47
2021/01/03 00:56:22;;;;;;;57.87;29.97;;;4.50;99.90;;;;;;5010055;28;20495;-47
2021/01/03 00:58:50;;;;;;;58.47;29.43;;;4.40;99.90;;;;;;5013062;28;20481;-47
2021/01/03 01:01:19;;;;;;;52.23;28.90;;;4.40;99.90;;;;;;5009781;28;20486;-47
2021/01/03 01:03:47;;;;;;;52.33;27.33;;;4.40;99.90;;;;;;5009728;28;20478;-48
2021/01/03 01:06:14;;;;;;;57.63;29.67;;;4.60;99.90;;;;;;5013132;28;20510;-48
2021/01/03 01:08:41;;;;;;;58.27;31.03;;;4.50;99.90;;;;;;5010341;28;20562;-50
2021/01/03 01:11:09;;;;;;;58.90;29.70;;;4.50;99.90;;;;;;5014000;28;20482;-49
2021/01/03 01:13:37;;;;;;;58.17;29.93;;;4.50;99.90;;;;;;5015268;28;21027;-48
2021/01/03 01:16:08;;;;;;;64.70;31.40;;;4.40;99.90;;;;;;5010236;28;20482;-49
2021/01/03 01:18:36;;;;;;;57.97;30.53;;;4.40;99.90;;;;;;5014129;28;20524;-48
2021/01/03 01:21:05;;;;;;;55.47;29.30;;;4.30;99.90;;;;;;5022422;28;20478;-49
2021/01/03 01:23:32;;;;;;;57.50;30.23;;;4.30;99.90;;;;;;5010308;28;20521;-48
2021/01/03 01:25:59;;;;;;;58.77;29.43;;;4.40;99.90;;;;;;5010543;28;20472;-48
2021/01/03 01:28:27;;;;;;;57.77;30.30;;;4.40;99.90;;;;;;5010294;28;20532;-49
2021/01/03 01:30:55;;;;;;;55.13;29.43;;;4.30;99.90;;;;;;5009265;28;20972;-48
2021/01/03 01:33:23;;;;;;;53.60;29.23;;;4.30;99.90;;;;;;5010053;28;20483;-48
2021/01/03 01:35:51;;;;;;;55.17;29.90;;;4.20;99.90;;;;;;5009135;28;20808;-48
2021/01/03 01:38:19;;;;;;;55.90;30.17;;;4.40;99.90;;;;;;5013799;28;20505;-49
2021/01/03 01:40:46;;;;;;;53.67;28.80;;;4.30;99.90;;;;;;5010114;28;20511;-48
2021/01/03 01:43:17;;;;;;;49.37;26.30;;;4.30;99.90;;;;;;5024524;28;21041;-48
2021/01/03 01:45:47;;;;;;;49.80;27.30;;;4.30;99.90;;;;;;5029778;28;20473;-48
2021/01/03 01:48:18;;;;;;;51.40;27.87;;;4.30;99.90;;;;;;5029901;28;20540;-48
2021/01/03 01:50:51;;;;;;;49.83;27.43;;;4.30;99.90;;;;;;5011838;28;20543;-48
2021/01/03 01:53:26;;;;;;;53.73;27.07;;;4.30;99.90;;;;;;5009891;28;20473;-48
2021/01/03 01:56:02;;;;;;;46.27;26.60;;;4.30;99.90;;;;;;5009764;28;20910;-48
2021/01/03 01:58:42;;;;;;;49.83;27.10;;;4.30;99.90;;;;;;5009852;28;20502;-49
2021/01/03 02:01:16;;;;;;;45.30;24.03;;;4.30;99.90;;;;;;5006525;28;20552;-48
2021/01/03 02:03:52;;;;;;;47.30;26.90;;;4.30;99.90;;;;;;5009522;28;20487;-48
2021/01/03 02:06:27;;;;;;;51.30;28.23;;;4.30;99.90;;;;;;5018660;28;20908;-49
2021/01/03 02:09:01;;;;;;;53.83;27.83;;;4.30;99.90;;;;;;5027082;28;20471;-48
2021/01/03 02:11:32;;;;;;;48.90;26.23;;;4.20;99.90;;;;;;5008802;28;20867;-48
2021/01/03 02:14:03;;;;;;;56.47;28.00;;;4.30;99.90;;;;;;5009161;28;20544;-48
2021/01/03 02:16:34;;;;;;;47.33;25.63;;;4.30;99.90;;;;;;5008990;28;20495;-48
2021/01/03 02:19:04;;;;;;;48.60;27.23;;;4.30;99.90;;;;;;5008846;28;20800;-48
2021/01/03 02:21:42;;;;;;;46.27;23.83;;;4.30;99.90;;;;;;5008815;28;20473;-48
2021/01/03 02:24:18;;;;;;;44.47;24.73;;;4.40;99.90;;;;;;5008633;28;20559;-49
2021/01/03 02:26:52;;;;;;;51.87;26.80;;;4.30;99.90;;;;;;5008699;28;20597;-49
2021/01/03 02:29:23;;;;;;;49.40;25.13;;;4.30;99.90;;;;;;5009024;28;20493;-48
2021/01/03 02:31:54;;;;;;;46.67;25.73;;;4.40;99.90;;;;;;5007608;28;21218;-48
2021/01/03 02:34:27;;;;;;;48.20;25.47;;;4.30;99.90;;;;;;5009052;28;20572;-48
2021/01/03 02:37:00;;;;;;;48.57;26.90;;;4.30;99.90;;;;;;5021462;28;20479;-48
2021/01/03 02:39:36;;;;;;;46.23;26.27;;;4.30;99.90;;;;;;5001422;28;20472;-49
2021/01/03 02:42:16;;;;;;;44.40;25.03;;;4.30;99.90;;;;;;5025424;28;21056;-49
2021/01/03 02:44:44;;;;;;;48.13;26.50;;;4.30;99.90;;;;;;5028245;28;20568;-48
2021/01/03 02:47:12;;;;;;;49.43;26.57;;;4.20;99.90;;;;;;5028391;28;20556;-47
2021/01/03 02:49:40;;;;;;;48.97;27.57;;;4.20;99.90;;;;;;5023625;28;20488;-48
2021/01/03 02:52:13;;;;;;;49.87;24.90;;;4.10;99.90;;;;;;5007852;28;20484;-48
2021/01/03 02:54:41;;;;;;;51.73;27.27;;;4.20;99.90;;;;;;5008974;28;20468;-48
2021/01/03 02:57:08;;;;;;;54.13;28.40;;;4.10;99.90;;;;;;5008164;28;20478;-49
2021/01/03 02:59:36;;;;;;;49.27;27.90;;;4.10;99.90;;;;;;5008391;28;20552;-48
2021/01/03 03:02:04;;;;;;;45.50;26.10;;;4.00;99.90;;;;;;5007971;28;20870;-48
2021/01/03 03:04:31;;;;;;;46.27;23.83;;;4.00;99.90;;;;;;5008311;28;20504;-48
2021/01/03 03:06:59;;;;;;;48.67;26.03;;;4.20;99.90;;;;;;5008247;28;20472;-48
2021/01/03 03:09:27;;;;;;;49.47;25.97;;;4.10;99.90;;;;;;5008011;28;20480;-48
2021/01/03 03:11:55;;;;;;;48.27;26.27;;;4.20;99.90;;;;;;5010222;28;20480;-48
2021/01/03 03:14:22;;;;;;;52.17;27.23;;;4.20;99.90;;;;;;5007895;28;20579;-48
2021/01/03 03:16:56;;;;;;;45.87;25.43;;;4.10;99.90;;;;;;5007908;28;20503;-50
2021/01/03 03:19:24;;;;;;;50.63;26.53;;;4.10;99.90;;;;;;5007863;28;20540;-48
2021/01/03 03:21:51;;;;;;;48.73;26.00;;;4.10;99.90;;;;;;5007759;28;20527;-48
2021/01/03 03:24:19;;;;;;;55.87;28.37;;;4.10;99.90;;;;;;5008053;28;20540;-49
2021/01/03 03:26:51;;;;;;;45.90;25.90;;;4.10;99.90;;;;;;5008063;28;20480;-49
2021/01/03 03:29:20;;;;;;;51.17;26.57;;;4.00;99.90;;;;;;5009573;28;20478;-48
2021/01/03 03:31:49;;;;;;;53.87;28.00;;;4.00;99.90;;;;;;5006840;28;20493;-48
2021/01/03 03:34:18;;;;;;;50.70;26.40;;;3.90;99.90;;;;;;5006868;28;20524;-48
2021/01/03 03:36:46;;;;;;;52.80;27.40;;;4.00;99.90;;;;;;5008594;28;20507;-48
2021/01/03 03:39:13;;;;;;;54.13;27.23;;;3.90;99.90;;;;;;5026689;28;20469;-48
2021/01/03 03:41:41;;;;;;;53.67;28.67;;;3.80;99.90;;;;;;5025698;28;20982;-50
2021/01/03 03:44:08;;;;;;;54.93;28.47;;;3.80;99.90;;;;;;5010117;28;20501;-48
2021/01/03 03:46:37;;;;;;;56.20;28.67;;;3.80;99.90;;;;;;5006468;28;20558;-49
2021/01/03 03:49:05;;;;;;;57.40;29.10;;;3.80;99.90;;;;;;5006208;28;20562;-51
2021/01/03 03:51:34;;;;;;;56.43;29.13;;;3.80;99.90;;;;;;5006851;28;20475;-48
2021/01/03 03:54:02;;;;;;;56.60;30.27;;;3.70;99.90;;;;;;5006295;28;20476;-48
2021/01/03 03:56:29;;;;;;;59.17;30.27;;;3.70;99.90;;;;;;5005817;28;20878;-48
2021/01/03 03:58:57;;;;;;;63.97;29.50;;;3.70;99.90;;;;;;5006739;28;20509;-47
2021/01/03 04:01:25;;;;;;;59.80;28.57;;;3.70;99.90;;;;;;5005602;28;20492;-48
2021/01/03 04:03:52;;;;;;;68.20;31.23;;;3.70;99.90;;;;;;5005975;28;20513;-48
2021/01/03 04:06:26;;;;;;;59.90;29.30;;;3.70;99.90;;;;;;5006228;28;20571;-48
2021/01/03 04:08:55;;;;;;;66.57;31.77;;;3.70;99.90;;;;;;5006328;28;20484;-48
2021/01/03 04:11:23;;;;;;;62.00;28.73;;;3.60;99.90;;;;;;5005774;28;21014;-49
2021/01/03 04:13:50;;;;;;;69.63;32.10;;;3.60;99.90;;;;;;5005792;28;20487;-48
2021/01/03 04:16:17;;;;;;;61.27;31.00;;;3.60;99.90;;;;;;5006401;28;20859;-49
2021/01/03 04:18:45;;;;;;;62.77;31.17;;;3.60;99.90;;;;;;5007277;28;21082;-49
2021/01/03 04:21:13;;;;;;;63.40;30.10;;;3.60;99.90;;;;;;5006541;28;20568;-48
2021/01/03 04:23:41;;;;;;;60.33;29.03;;;3.50;99.90;;;;;;5006833;28;20477;-49
2021/01/03 04:26:16;;;;;;;55.47;28.17;;;3.50;99.90;;;;;;5007491;28;20482;-49
2021/01/03 04:28:43;;;;;;;59.27;26.93;;;3.50;99.90;;;;;;5005302;28;20716;-49
2021/01/03 04:31:11;;;;;;;72.30;36.30;;;3.50;99.90;;;;;;5016798;28;20506;-48
2021/01/03 04:33:41;;;;;;;61.33;28.80;;;3.50;99.90;;;;;;5017076;28;20249;-48
2021/01/03 04:36:13;;;;;;;62.13;28.93;;;3.60;99.90;;;;;;5029155;28;20555;-48
2021/01/03 04:38:40;;;;;;;54.37;25.43;;;3.60;99.90;;;;;;5030877;28;20508;-48
2021/01/03 04:41:12;;;;;;;58.83;28.10;;;3.60;99.90;;;;;;5026984;28;20544;-48
2021/01/03 04:43:40;;;;;;;56.43;26.83;;;3.60;99.90;;;;;;5010738;28;20472;-47
2021/01/03 04:46:11;;;;;;;62.77;28.37;;;3.50;99.90;;;;;;5011048;28;20477;-49
2021/01/03 04:48:40;;;;;;;63.73;28.67;;;3.50;99.90;;;;;;5010629;28;20535;-48
2021/01/03 04:51:27;;;;;;;58.73;28.33;;;3.50;99.90;;;;;;5010401;28;20967;-49
2021/01/03 04:54:06;;;;;;;54.23;25.90;;;3.50;99.90;;;;;;5010902;28;20502;-49
2021/01/03 04:56:50;;;;;;;55.03;26.40;;;3.50;99.90;;;;;;5010599;28;20500;-48
2021/01/03 04:59:29;;;;;;;60.73;27.43;;;3.60;99.90;;;;;;5013038;28;20570;-49
2021/01/03 05:02:36;;;;;;;59.57;27.00;;;3.60;99.90;;;;;;5010213;28;20488;-48
2021/01/03 05:05:28;;;;;;;56.10;28.10;;;3.60;99.90;;;;;;5010656;28;20489;-48
2021/01/03 05:08:20;;;;;;;59.93;27.93;;;3.60;99.90;;;;;;5010565;28;20521;-48
2021/01/03 05:10:47;;;;;;;58.17;27.73;;;3.60;99.90;;;;;;5009895;28;20553;-49
2021/01/03 05:13:33;;;;;;;62.57;27.40;;;3.60;99.90;;;;;;5010368;28;20515;-47
2021/01/03 05:16:01;;;;;;;59.73;27.17;;;3.70;99.90;;;;;;5010739;28;20549;-49
2021/01/03 05:18:28;;;;;;;55.10;25.50;;;3.60;99.90;;;;;;5012625;28;20471;-48
2021/01/03 05:20:57;;;;;;;59.90;27.87;;;3.70;99.90;;;;;;5009758;28;21002;-48
2021/01/03 05:23:27;;;;;;;57.87;27.33;;;3.60;99.90;;;;;;5010108;28;20546;-48
2021/01/03 05:25:56;;;;;;;60.70;27.67;;;3.60;99.90;;;;;;5010256;28;20895;-48
2021/01/03 05:28:27;;;;;;;58.50;26.07;;;3.70;99.90;;;;;;5011098;28;20887;-48
2021/01/03 05:31:13;;;;;;;55.10;26.30;;;3.70;99.90;;;;;;5009887;28;20480;-48
2021/01/03 05:33:52;;;;;;;59.13;27.93;;;3.70;99.90;;;;;;5028002;28;21059;-49
2021/01/03 05:36:42;;;;;;;57.87;26.33;;;3.70;99.90;;;;;;5029649;28;20558;-48
2021/01/03 05:39:29;;;;;;;53.93;25.93;;;3.70;99.90;;;;;;5013668;28;20481;-47
2021/01/03 05:42:29;;;;;;;54.47;26.67;;;3.70;99.90;;;;;;5009371;28;20512;-48
2021/01/03 05:45:01;;;;;;;52.17;24.57;;;3.70;99.90;;;;;;5009517;28;20501;-48
2021/01/03 05:47:34;;;;;;;55.20;26.27;;;3.80;99.90;;;;;;5009943;28;20477;-48
2021/01/03 05:50:25;;;;;;;52.10;25.67;;;3.90;99.90;;;;;;5009823;28;20479;-48
2021/01/03 05:52:55;;;;;;;65.47;25.77;;;3.80;99.90;;;;;;5009126;28;20497;-48
2021/01/03 05:55:25;;;;;;;61.60;27.27;;;3.90;99.90;;;;;;5012444;28;20914;-48
2021/01/03 05:58:15;;;;;;;53.80;26.23;;;3.90;99.90;;;;;;5019362;28;20545;-48
2021/01/03 06:00:45;;;;;;;53.07;25.53;;;3.80;99.90;;;;;;5011041;28;20486;-48
2021/01/03 06:03:19;;;;;;;54.90;25.80;;;3.80;99.90;;;;;;5009431;28;20486;-48
2021/01/03 06:05:50;;;;;;;54.57;24.10;;;3.80;99.90;;;;;;5009196;28;20549;-48
2021/01/03 06:08:24;;;;;;;53.63;24.93;;;3.90;99.90;;;;;;5009423;28;20550;-48
2021/01/03 06:10:53;;;;;;;53.03;24.63;;;3.80;99.90;;;;;;5009444;28;20542;-48
2021/01/03 06:13:25;;;;;;;51.87;24.43;;;3.80;99.90;;;;;;5009276;28;20484;-48
2021/01/03 06:15:58;;;;;;;47.60;23.27;;;3.80;99.90;;;;;;5009601;28;20567;-48
2021/01/03 06:18:35;;;;;;;46.90;21.00;;;3.80;99.90;;;;;;5008591;28;20520;-48
2021/01/03 06:21:02;;;;;;;47.93;22.37;;;3.90;99.90;;;;;;5009123;28;20518;-48
2021/01/03 06:23:35;;;;;;;43.73;20.83;;;3.80;99.90;;;;;;5007688;28;20511;-48
2021/01/03 06:26:10;;;;;;;44.83;22.67;;;3.80;99.90;;;;;;5017665;28;20534;-48
2021/01/03 06:28:48;;;;;;;38.97;19.57;;;3.80;99.90;;;;;;5007380;28;20863;-49
2021/01/03 06:31:59;;;;;;;38.53;19.87;;;3.80;99.90;;;;;;5005473;28;20852;-48
2021/01/03 06:34:40;;;;;;;36.87;18.07;;;3.80;99.90;;;;;;5006087;28;20474;-48
2021/01/03 06:37:22;;;;;;;34.23;18.27;;;3.70;99.90;;;;;;5023469;28;20919;-48
2021/01/03 06:40:02;;;;;;;32.13;18.63;;;3.80;99.90;;;;;;5010252;28;20576;-48
2021/01/03 06:43:26;;;;;;;30.93;17.00;;;3.80;99.90;;;;;;5006873;28;20478;-48
2021/01/03 06:46:54;;;;;;;31.70;17.63;;;3.80;99.90;;;;;;4998285;28;20488;-48
2021/01/03 06:49:57;;;;;;;27.20;16.20;;;3.80;99.90;;;;;;5000104;28;20566;-48
2021/01/03 06:52:52;;;;;;;28.57;16.97;;;3.80;99.90;;;;;;5003664;28;20488;-48
2021/01/03 06:56:15;;;;;;;27.50;16.13;;;3.80;99.90;;;;;;5007290;28;21099;-48
2021/01/03 06:59:22;;;;;;;24.60;15.50;;;3.90;99.90;;;;;;4976962;28;20546;-48
2021/01/03 07:01:50;;;;;;;25.63;14.83;;;3.80;99.90;;;;;;4999659;28;20538;-48
2021/01/03 07:04:24;;;;;;;24.97;15.37;;;3.90;99.90;;;;;;5004182;28;21063;-48
2021/01/03 07:06:54;;;;;;;24.80;16.47;;;3.90;99.90;;;;;;5007110;28;20482;-48
2021/01/03 07:09:21;;;;;;;23.87;14.83;;;3.90;99.90;;;;;;5005824;28;20495;-48
2021/01/03 07:11:53;;;;;;;23.47;15.77;;;3.90;99.90;;;;;;5006183;28;20480;-48
2021/01/03 07:14:56;;;;;;;24.50;14.97;;;3.90;99.90;;;;;;5004554;28;20511;-48
2021/01/03 07:18:10;;;;;;;24.47;15.93;;;3.80;99.90;;;;;;4999897;28;20507;-48
2021/01/03 07:20:51;;;;;;;23.73;15.27;;;3.80;99.90;;;;;;5002422;28;20572;-48
2021/01/03 07:23:34;;;;;;;21.67;14.50;;;3.80;99.90;;;;;;4998459;28;20477;-48
2021/01/03 07:26:18;;;;;;;24.70;16.43;;;3.90;99.90;;;;;;4995836;28;20477;-48
2021/01/03 07:28:50;;;;;;;22.13;15.33;;;3.80;99.90;;;;;;5015331;28;20511;-48
2021/01/03 07:31:43;;;;;;;25.80;15.97;;;3.80;99.90;;;;;;5025684;28;20486;-48
2021/01/03 07:34:15;;;;;;;23.73;14.60;;;3.80;99.90;;;;;;5027180;28;20567;-48
2021/01/03 07:36:48;;;;;;;24.13;15.30;;;3.90;99.90;;;;;;5013318;28;20504;-48
2021/01/03 07:39:29;;;;;;;23.97;14.93;;;3.90;99.90;;;;;;4995989;28;20902;-49
2021/01/03 07:42:18;;;;;;;24.20;16.00;;;3.90;99.90;;;;;;4987837;28;20540;-48
2021/01/03 07:44:46;;;;;;;21.80;15.30;;;3.90;99.90;;;;;;4987937;28;21061;-48
2021/01/03 07:47:37;;;;;;;23.20;14.93;;;3.90;99.90;;;;;;4993795;28;20482;-48
2021/01/03 07:50:35;;;;;;;23.03;14.33;;;3.90;99.90;;;;;;5007638;28;20484;-49
2021/01/03 07:53:26;;;;;;;22.87;15.23;;;3.80;99.90;;;;;;5005695;28;21049;-48
2021/01/03 07:55:54;;;;;;;21.03;14.40;;;3.90;99.90;;;;;;5007667;28;20482;-48
2021/01/03 07:58:24;;;;;;;20.87;14.80;;;3.90;99.90;;;;;;5007468;28;20483;-48
2021/01/03 08:00:55;;;;;;;21.00;15.23;;;3.90;99.90;;;;;;5007077;28;20485;-49
2021/01/03 08:03:25;;;;;;;24.60;15.10;;;3.80;99.90;;;;;;5007237;28;20486;-48
2021/01/03 08:05:53;;;;;;;23.07;15.23;;;3.80;99.90;;;;;;5009648;28;20720;-48
2021/01/03 08:08:26;;;;;;;21.17;14.67;;;3.80;99.90;;;;;;5011481;28;20907;-49
2021/01/03 08:11:23;;;;;;;22.13;14.47;;;3.90;99.90;;;;;;5009928;28;21080;-48
2021/01/03 08:13:56;;;;;;;21.40;14.57;;;3.90;99.90;;;;;;5009921;28;20522;-48
2021/01/03 08:16:26;;;;;;;21.50;14.23;;;3.80;99.90;;;;;;5010312;28;21059;-49
2021/01/03 08:19:03;;;;;;;21.00;13.97;;;3.80;99.90;;;;;;5008709;28;20905;-47
2021/01/03 08:21:33;;;;;;;20.27;13.17;;;3.80;99.90;;;;;;5008574;28;20840;-48
2021/01/03 08:24:10;;;;;;;22.90;13.63;;;3.80;99.90;;;;;;5011450;28;20984;-48
2021/01/03 08:26:44;;;;;;;19.50;13.53;;;3.80;99.90;;;;;;5019759;28;20496;-48
2021/01/03 08:29:23;;;;;;;20.50;13.03;;;3.80;99.90;;;;;;5029327;28;20552;-48
2021/01/03 08:31:53;;;;;;;20.03;13.80;;;3.80;99.90;;;;;;5012581;28;20576;-48
2021/01/03 08:34:28;;;;;;;17.70;13.27;;;3.80;99.90;;;;;;5009768;28;20779;-49
2021/01/03 08:36:56;;;;;;;19.40;13.13;;;3.80;99.90;;;;;;5009072;28;20485;-48
2021/01/03 08:39:27;;;;;;;19.77;12.87;;;3.80;99.90;;;;;;5009021;28;20843;-48
2021/01/03 08:42:00;;;;;;;20.63;13.47;;;3.90;99.90;;;;;;5006818;28;20568;-48
2021/01/03 08:44:35;;;;;;;19.00;12.60;;;3.80;99.90;;;;;;5005593;28;21014;-49
2021/01/03 08:47:08;;;;;;;20.93;13.30;;;3.90;99.90;;;;;;5006206;28;20476;-48
2021/01/03 08:49:36;;;;;;;18.90;12.93;;;3.80;99.90;;;;;;5008969;28;20495;-49
2021/01/03 08:52:18;;;;;;;18.93;13.30;;;3.80;99.90;;;;;;5009333;28;20486;-48
2021/01/03 08:54:49;;;;;;;20.10;12.83;;;3.90;99.90;;;;;;5009292;28;21036;-48
2021/01/03 08:57:19;;;;;;;18.87;12.73;;;3.90;99.90;;;;;;5009417;28;20507;-48
2021/01/03 08:59:57;;;;;;;19.77;13.37;;;3.90;99.90;;;;;;5000273;28;20525;-48
2021/01/03 09:02:27;;;;;;;20.67;12.67;;;3.90;99.90;;;;;;4989180;28;20489;-48
2021/01/03 09:05:00;;;;;;;19.80;12.83;;;3.90;99.90;;;;;;4989436;28;20877;-50
2021/01/03 09:07:35;;;;;;;18.60;12.70;;;3.80;99.90;;;;;;5006518;28;20478;-49
2021/01/03 09:10:06;;;;;;;20.00;12.33;;;3.80;99.90;;;;;;5009262;28;20556;-48
2021/01/03 09:12:38;;;;;;;17.90;11.83;;;3.80;99.90;;;;;;5011214;28;20577;-48
2021/01/03 09:15:14;;;;;;;15.33;11.10;;;3.80;99.90;;;;;;5008746;28;20481;-48
2021/01/03 09:17:42;;;;;;;16.33;10.67;;;3.80;99.90;;;;;;5005546;28;21018;-48
2021/01/03 09:20:32;;;;;;;14.00;10.73;;;3.80;99.90;;;;;;5022808;28;21023;-48
2021/01/03 09:23:08;;;;;;;15.87;10.90;;;3.70;99.90;;;;;;5015342;28;20892;-48
2021/01/03 09:25:39;;;;;;;11.77;9.50;;;3.70;99.90;;;;;;5028702;28;20818;-48
2021/01/03 09:28:16;;;;;;;12.23;9.53;;;3.70;99.90;;;;;;5009664;28;20532;-48
2021/01/03 09:30:44;;;;;;;14.83;10.17;;;3.70;99.90;;;;;;5008446;28;20970;-48
2021/01/03 09:33:23;;;;;;;13.23;10.10;;;3.70;99.90;;;;;;5008278;28;20819;-48
2021/01/03 09:36:06;;;;;;;12.90;9.67;;;3.60;99.90;;;;;;5008366;28;20480;-48
2021/01/03 09:39:06;;;;;;;11.17;8.83;;;3.70;99.90;;;;;;5008685;28;20560;-48
2021/01/03 09:41:49;;;;;;;11.37;8.80;;;3.70;99.90;;;;;;5008087;28;20551;-49
2021/01/03 09:44:28;;;;;;;11.10;8.73;;;3.70;99.90;;;;;;5008198;28;20589;-48
2021/01/03 09:47:01;;;;;;;14.97;10.03;;;3.70;99.90;;;;;;5025139;28;20518;-48
2021/01/03 09:49:43;;;;;;;11.80;8.73;;;3.60;99.90;;;;;;5013163;28;20569;-48
2021/01/03 09:52:22;;;;;;;12.93;9.50;;;3.60;99.90;;;;;;5007534;28;20964;-48
2021/01/03 09:55:07;;;;;;;11.90;8.70;;;3.60;99.90;;;;;;5007597;28;21066;-50
2021/01/03 09:57:41;;;;;;;11.00;8.30;;;3.60;99.90;;;;;;5008177;28;20889;-48
2021/01/03 10:00:13;;;;;;;10.00;7.60;;;3.50;99.90;;;;;;5007313;28;20502;-48
2021/01/03 10:02:41;;;;;;;10.97;8.17;;;3.50;99.90;;;;;;5007445;28;21047;-48
2021/01/03 10:05:23;;;;;;;9.87;7.87;;;3.50;99.90;;;;;;5007507;28;21086;-48
2021/01/03 10:08:02;;;;;;;10.17;8.03;;;3.50;99.90;;;;;;5007850;28;20481;-48
2021/01/03 10:10:45;;;;;;;9.60;8.10;;;3.50;99.90;;;;;;5004219;28;20474;-48
2021/01/03 10:13:14;;;;;;;10.20;6.97;;;3.50;99.90;;;;;;5002665;28;20512;-49
2021/01/03 10:15:43;;;;;;;9.67;7.93;;;3.50;99.90;;;;;;5001453;28;20925;-48
2021/01/03 10:18:12;;;;;;;10.03;7.87;;;3.50;99.90;;;;;;5012527;28;20503;-48
2021/01/03 10:20:45;;;;;;;10.60;8.80;;;3.50;99.90;;;;;;5022220;28;20511;-48
2021/01/03 10:23:30;;;;;;;9.93;8.10;;;3.50;99.90;;;;;;5027664;28;20828;-48
2021/01/03 10:25:57;;;;;;;12.33;8.97;;;3.50;99.90;;;;;;5028123;28;21092;-48
2021/01/03 10:28:28;;;;;;;12.57;9.03;;;3.60;99.90;;;;;;5028202;28;20814;-49
2021/01/03 10:30:56;;;;;;;13.47;9.83;;;3.60;99.90;;;;;;5028569;28;20504;-48
2021/01/03 10:33:24;;;;;;;11.03;9.00;;;3.60;99.90;;;;;;5021879;28;20486;-49
2021/01/03 10:35:51;;;;;;;10.80;9.27;;;3.60;99.90;;;;;;4994648;28;20496;-48
2021/01/03 10:38:18;;;;;;;14.37;9.47;;;3.70;99.90;;;;;;4994995;28;21196;-48
2021/01/03 10:40:46;;;;;;;12.20;9.80;;;3.70;99.90;;;;;;4994741;28;20835;-48
2021/01/03 10:43:13;;;;;;;11.67;9.03;;;3.70;99.90;;;;;;4993596;28;21104;-48
2021/01/03 10:45:42;;;;;;;12.83;9.80;;;3.80;99.90;;;;;;4994527;28;20496;-48
2021/01/03 10:48:13;;;;;;;12.43;9.67;;;3.90;99.90;;;;;;4994283;28;20544;-48
2021/01/03 10:50:40;;;;;;;11.93;9.40;;;3.90;99.90;;;;;;4994648;28;20492;-48
2021/01/03 10:53:08;;;;;;;12.47;9.63;;;4.00;99.90;;;;;;4991681;28;20496;-50
2021/01/03 10:55:35;;;;;;;12.67;9.50;;;4.10;99.90;;;;;;4994426;28;20484;-49
2021/01/03 10:58:05;;;;;;;13.83;9.73;;;4.10;99.90;;;;;;4994610;28;20761;-48
2021/01/03 11:00:33;;;;;;;11.83;9.17;;;4.10;99.90;;;;;;4994181;28;20492;-47
2021/01/03 11:03:00;;;;;;;12.20;8.63;;;4.20;99.90;;;;;;4992263;28;20497;-48
2021/01/03 11:05:30;;;;;;;12.00;9.00;;;4.30;99.90;;;;;;4993703;28;20592;-48
2021/01/03 11:07:59;;;;;;;11.53;8.87;;;4.40;99.90;;;;;;4994333;28;20492;-48
2021/01/03 11:10:30;;;;;;;9.43;8.07;;;4.50;99.90;;;;;;4994558;28;20952;-48
2021/01/03 11:12:57;;;;;;;10.47;8.57;;;4.60;99.90;;;;;;4991339;28;20605;-48
2021/01/03 11:15:25;;;;;;;11.10;8.33;;;4.50;99.90;;;;;;4992016;28;21273;-48
2021/01/03 11:17:53;;;;;;;12.90;8.43;;;4.40;99.90;;;;;;4995623;28;20494;-48
2021/01/03 11:20:21;;;;;;;10.50;7.63;;;4.30;99.90;;;;;;4994702;28;20484;-48
2021/01/03 11:22:51;;;;;;;11.20;8.03;;;4.20;99.90;;;;;;4992818;28;21662;-50
2021/01/03 11:25:19;;;;;;;10.10;8.03;;;4.20;99.90;;;;;;4993993;28;20621;-48
2021/01/03 11:27:47;;;;;;;8.73;7.67;;;4.20;99.90;;;;;;4994146;28;20891;-48
2021/01/03 11:30:16;;;;;;;9.63;7.40;;;4.20;99.90;;;;;;4993662;28;20490;-48
2021/01/03 11:32:43;;;;;;;8.73;7.17;;;4.20;99.90;;;;;;5001723;28;21035;-48
2021/01/03 11:35:13;;;;;;;10.60;7.50;;;4.20;99.90;;;;;;5004977;28;20477;-48
2021/01/03 11:37:41;;;;;;;7.43;6.53;;;4.20;99.90;;;;;;5007299;28;20484;-48
2021/01/03 11:40:11;;;;;;;9.13;6.80;;;4.30;99.90;;;;;;5009523;28;20481;-48
2021/01/03 11:42:40;;;;;;;9.50;6.90;;;4.30;99.90;;;;;;5006564;28;20990;-49
2021/01/03 11:45:12;;;;;;;7.20;6.17;;;4.20;99.90;;;;;;5007727;28;20472;-48
2021/01/03 11:47:40;;;;;;;10.40;6.20;;;4.20;99.90;;;;;;5006895;28;20480;-48
2021/01/03 11:50:11;;;;;;;7.90;6.20;;;4.20;99.90;;;;;;5008041;28;20486;-48
2021/01/03 11:52:39;;;;;;;8.03;5.80;;;4.20;99.90;;;;;;5006789;28;20575;-48
2021/01/03 11:55:11;;;;;;;6.73;5.83;;;4.20;99.90;;;;;;5008065;28;20556;-49
2021/01/03 11:57:38;;;;;;;7.43;5.97;;;4.30;99.90;;;;;;5007000;28;20554;-48
2021/01/03 12:00:10;;;;;;;7.43;5.50;;;4.30;99.90;;;;;;5007726;28;20548;-48
2021/01/03 12:02:40;;;;;;;6.23;5.50;;;4.20;99.90;;;;;;5007325;28;20809;-47
2021/01/03 12:05:17;;;;;;;6.50;5.40;;;4.20;99.90;;;;;;5007479;28;20482;-48
2021/01/03 12:07:44;;;;;;;7.23;5.60;;;4.20;99.90;;;;;;5007504;28;20551;-48
2021/01/03 12:10:13;;;;;;;5.73;4.80;;;4.20;99.90;;;;;;5004656;28;20507;-48
2021/01/03 12:12:41;;;;;;;5.77;5.13;;;4.10;99.90;;;;;;5009329;28;20938;-48
2021/01/03 12:15:09;;;;;;;7.77;5.40;;;4.10;99.90;;;;;;5004678;28;20566;-48
2021/01/03 12:17:37;;;;;;;8.63;6.13;;;4.20;99.90;;;;;;5014433;28;20556;-48
2021/01/03 12:20:06;;;;;;;7.27;4.97;;;4.20;99.90;;;;;;5027976;28;20972;-48
2021/01/03 12:22:34;;;;;;;6.67;4.80;;;4.20;99.90;;;;;;5020035;28;20565;-48
2021/01/03 12:25:03;;;;;;;6.07;5.03;;;4.20;99.90;;;;;;5007646;28;20981;-48
2021/01/03 12:27:31;;;;;;;6.67;5.60;;;4.30;99.90;;;;;;5004639;28;20569;-47
2021/01/03 12:29:58;;;;;;;7.23;4.93;;;4.20;99.90;;;;;;4988223;28;20478;-48
2021/01/03 12:32:27;;;;;;;5.73;5.00;;;4.30;99.90;;;;;;4997778;28;20476;-48
2021/01/03 12:34:54;;;;;;;6.10;4.93;;;4.30;99.90;;;;;;5009091;28;21013;-48
2021/01/03 12:37:22;;;;;;;5.97;5.10;;;4.30;99.90;;;;;;5007613;28;20485;-47
2021/01/03 12:39:50;;;;;;;7.50;4.93;;;4.30;99.90;;;;;;5007624;28;20496;-47
2021/01/03 12:42:21;;;;;;;8.07;4.77;;;4.30;99.90;;;;;;5006294;28;20511;-49
2021/01/03 12:44:50;;;;;;;7.43;4.70;;;4.30;99.90;;;;;;5007046;28;20526;-48
2021/01/03 12:47:18;;;;;;;7.43;4.30;;;4.20;99.90;;;;;;5007305;28;20893;-48
2021/01/03 12:49:46;;;;;;;5.83;4.67;;;4.20;99.90;;;;;;5006471;28;20646;-48
2021/01/03 12:52:14;;;;;;;6.47;4.27;;;4.20;99.90;;;;;;5009111;28;20490;-48
2021/01/03 12:54:41;;;;;;;5.90;4.50;;;4.20;99.90;;;;;;5010524;28;20508;-48
2021/01/03 12:57:09;;;;;;;5.20;4.20;;;4.20;99.90;;;;;;5010914;28;20478;-48
2021/01/03 12:59:36;;;;;;;6.00;4.40;;;4.20;99.90;;;;;;5010873;28;20499;-47
2021/01/03 13:02:06;;;;;;;5.60;4.40;;;4.20;99.90;;;;;;5010388;28;20529;-48
2021/01/03 13:04:53;;;;;;;5.00;4.10;;;4.30;99.90;;;;;;5010577;28;20486;-48
2021/01/03 13:07:21;;;;;;;6.37;4.43;;;4.20;99.90;;;;;;5010685;28;20577;-48
2021/01/03 13:09:48;;;;;;;6.20;4.47;;;4.20;99.90;;;;;;5005748;28;20522;-48
2021/01/03 13:12:15;;;;;;;5.83;3.77;;;4.20;99.90;;;;;;5014006;28;20553;-48